createdAt,value
2022-12-18T00:01:33.879Z,4.78
2022-12-18T00:04:04.093Z,4.99
2022-12-18T00:06:32.164Z,5.14
2022-12-18T00:09:00.234Z,5.22
2022-12-18T00:11:30.522Z,5.40
2022-12-18T00:14:00.135Z,5.60
2022-12-18T00:16:28.234Z,5.60
2022-12-18T00:19:00.780Z,5.76
2022-12-18T00:21:29.417Z,5.88
2022-12-18T00:23:55.910Z,5.93
2022-12-18T00:26:29.338Z,5.95
2022-12-18T00:29:00.020Z,5.49
2022-12-18T00:31:26.770Z,5.82
2022-12-18T00:33:58.017Z,5.89
2022-12-18T00:36:28.301Z,5.58
2022-12-18T00:38:57.466Z,5.41
2022-12-18T00:41:24.432Z,5.48
2022-12-18T00:43:51.032Z,5.17
2022-12-18T00:46:17.580Z,5.23
2022-12-18T00:48:44.127Z,5.09
2022-12-18T00:51:11.699Z,5.50
2022-12-18T00:53:38.330Z,5.62
2022-12-18T00:56:05.072Z,5.71
2022-12-18T00:58:31.541Z,5.84
2022-12-18T01:00:58.343Z,5.99
2022-12-18T01:03:25.036Z,6.04
2022-12-18T01:05:51.489Z,6.06
2022-12-18T01:08:18.201Z,6.04
2022-12-18T01:10:44.651Z,5.99
2022-12-18T01:13:11.592Z,5.85
2022-12-18T01:15:38.210Z,6.02
2022-12-18T01:18:06.569Z,5.39
2022-12-18T01:20:33.510Z,5.28
2022-12-18T01:22:59.956Z,5.62
2022-12-18T01:25:26.410Z,5.57
2022-12-18T01:27:52.875Z,5.76
2022-12-18T01:30:19.328Z,5.52
2022-12-18T01:32:45.824Z,5.65
2022-12-18T01:35:12.311Z,5.30
2022-12-18T01:37:38.829Z,4.48
2022-12-18T01:40:06.101Z,4.63
2022-12-18T01:42:32.688Z,4.60
2022-12-18T01:45:01.250Z,4.78
2022-12-18T01:47:36.543Z,4.37
2022-12-18T01:50:26.432Z,3.68
2022-12-18T01:53:04.572Z,3.80
2022-12-18T01:55:37.831Z,3.95
2022-12-18T01:58:05.082Z,3.93
2022-12-18T02:00:31.789Z,3.55
2022-12-18T02:02:58.879Z,3.91
2022-12-18T02:05:43.388Z,3.89
2022-12-18T02:08:21.967Z,4.06
2022-12-18T02:11:11.780Z,4.11
2022-12-18T02:14:21.777Z,4.38
2022-12-18T02:17:04.595Z,4.20
2022-12-18T02:20:04.616Z,4.36
2022-12-18T02:22:44.248Z,4.41
2022-12-18T02:25:35.336Z,4.72
2022-12-18T02:28:09.920Z,4.85
2022-12-18T02:30:40.702Z,4.25
2022-12-18T02:33:11.968Z,4.57
2022-12-18T02:35:42.711Z,4.47
2022-12-18T02:38:10.424Z,4.45
2022-12-18T02:40:39.350Z,4.30
2022-12-18T02:43:14.945Z,4.55
2022-12-18T02:45:51.436Z,4.17
2022-12-18T02:48:24.744Z,4.26
2022-12-18T02:51:04.514Z,4.41
2022-12-18T02:53:46.201Z,4.43
2022-12-18T02:56:21.114Z,4.37
2022-12-18T02:59:07.104Z,4.45
2022-12-18T03:01:48.091Z,4.70
2022-12-18T03:04:22.460Z,4.59
2022-12-18T03:06:58.452Z,4.56
2022-12-18T03:09:37.350Z,4.49
2022-12-18T03:12:35.272Z,3.46
2022-12-18T03:15:17.645Z,3.49
2022-12-18T03:17:53.255Z,3.24
2022-12-18T03:20:22.688Z,3.23
2022-12-18T03:22:56.913Z,2.95
2022-12-18T03:25:26.587Z,3.33
2022-12-18T03:27:59.729Z,3.28
2022-12-18T03:30:30.681Z,3.54
2022-12-18T03:33:11.444Z,3.30
2022-12-18T03:35:42.416Z,3.15
2022-12-18T03:38:10.904Z,3.35
2022-12-18T03:41:16.372Z,3.36
2022-12-18T03:44:21.186Z,3.30
2022-12-18T03:47:24.577Z,3.26
2022-12-18T03:50:12.632Z,3.35
2022-12-18T03:53:03.855Z,3.45
2022-12-18T03:55:35.348Z,3.36
2022-12-18T03:58:07.688Z,2.93
2022-12-18T04:00:36.005Z,3.42
2022-12-18T04:03:05.721Z,3.67
2022-12-18T04:05:36.483Z,3.64
2022-12-18T04:08:04.168Z,3.62
2022-12-18T04:10:30.987Z,3.72
2022-12-18T04:13:25.643Z,2.88
2022-12-18T04:16:04.984Z,3.02
2022-12-18T04:18:31.958Z,3.23
2022-12-18T04:20:58.417Z,2.95
2022-12-18T04:23:24.899Z,2.75
2022-12-18T04:25:51.390Z,3.22
2022-12-18T04:28:18.133Z,3.36
2022-12-18T04:30:44.682Z,3.51
2022-12-18T04:33:14.039Z,3.47
2022-12-18T04:35:41.333Z,3.55
2022-12-18T04:38:09.010Z,3.49
2022-12-18T04:40:35.805Z,3.23
2022-12-18T04:43:02.461Z,3.14
2022-12-18T04:45:28.999Z,3.01
2022-12-18T04:47:55.484Z,3.27
2022-12-18T04:50:21.966Z,3.38
2022-12-18T04:52:48.493Z,3.23
2022-12-18T04:55:15.024Z,3.25
2022-12-18T04:57:41.475Z,3.51
2022-12-18T05:00:08.597Z,3.49
2022-12-18T05:02:35.146Z,3.28
2022-12-18T05:05:01.742Z,3.29
2022-12-18T05:07:28.219Z,2.97
2022-12-18T05:09:54.794Z,3.10
2022-12-18T05:12:26.557Z,3.30
2022-12-18T05:14:53.016Z,3.10
2022-12-18T05:17:19.575Z,3.64
2022-12-18T05:19:46.043Z,3.77
2022-12-18T05:22:12.899Z,3.60
2022-12-18T05:24:39.400Z,3.57
2022-12-18T05:27:05.848Z,3.74
2022-12-18T05:29:32.354Z,3.86
2022-12-18T05:31:58.818Z,4.01
2022-12-18T05:34:25.376Z,4.16
2022-12-18T05:36:51.858Z,4.48
2022-12-18T05:39:18.347Z,4.57
2022-12-18T05:41:44.833Z,4.42
2022-12-18T05:44:11.273Z,3.49
2022-12-18T05:46:37.911Z,3.23
2022-12-18T05:49:04.409Z,2.69
2022-12-18T05:51:30.873Z,2.39
2022-12-18T05:53:57.400Z,2.29
2022-12-18T05:56:24.101Z,2.23
2022-12-18T05:58:55.002Z,2.18
2022-12-18T06:01:25.203Z,2.13
2022-12-18T06:03:51.806Z,2.58
2022-12-18T06:06:21.466Z,2.62
2022-12-18T06:08:48.586Z,2.61
2022-12-18T06:11:20.099Z,2.73
2022-12-18T06:13:47.507Z,2.75
2022-12-18T06:16:14.024Z,2.89
2022-12-18T06:18:40.665Z,3.20
2022-12-18T06:21:07.212Z,3.43
2022-12-18T06:23:33.672Z,3.43
2022-12-18T06:26:13.157Z,3.23
2022-12-18T06:28:39.968Z,3.56
2022-12-18T06:31:08.138Z,3.75
2022-12-18T06:33:35.107Z,3.52
2022-12-18T06:36:07.144Z,3.49
2022-12-18T06:38:35.968Z,2.97
2022-12-18T06:41:11.132Z,3.36
2022-12-18T06:43:38.047Z,3.41
2022-12-18T06:46:06.320Z,3.73
2022-12-18T06:48:33.520Z,3.72
2022-12-18T06:51:00.211Z,3.85
2022-12-18T06:53:26.884Z,3.95
2022-12-18T06:55:53.569Z,4.28
2022-12-18T06:58:20.008Z,4.23
2022-12-18T07:00:46.573Z,4.18
2022-12-18T07:03:13.076Z,3.84
2022-12-18T07:05:42.302Z,4.06
2022-12-18T07:08:08.752Z,4.03
2022-12-18T07:10:47.454Z,4.49
2022-12-18T07:13:16.811Z,4.73
2022-12-18T07:15:44.639Z,4.92
2022-12-18T07:18:11.825Z,5.06
2022-12-18T07:20:38.307Z,5.20
2022-12-18T07:23:05.571Z,5.19
2022-12-18T07:25:35.851Z,5.30
2022-12-18T07:28:02.618Z,5.26
2022-12-18T07:30:29.122Z,5.17
2022-12-18T07:32:55.683Z,5.10
2022-12-18T07:35:25.188Z,5.34
2022-12-18T07:37:52.291Z,5.46
2022-12-18T07:40:18.988Z,5.61
2022-12-18T07:42:45.440Z,5.70
2022-12-18T07:45:11.981Z,5.63
2022-12-18T07:47:38.625Z,5.35
2022-12-18T07:50:06.802Z,5.20
2022-12-18T07:52:33.464Z,5.18
2022-12-18T07:55:00.538Z,5.21
2022-12-18T07:57:49.494Z,5.28
2022-12-18T08:00:14.065Z,5.28
2022-12-18T08:02:40.711Z,5.15
2022-12-18T08:05:09.148Z,5.30
2022-12-18T08:07:35.591Z,5.58
2022-12-18T08:10:02.077Z,5.51
2022-12-18T08:12:28.582Z,5.25
2022-12-18T08:14:55.058Z,5.56
2022-12-18T08:17:21.528Z,5.55
2022-12-18T08:19:47.991Z,5.33
2022-12-18T08:22:14.450Z,5.62
2022-12-18T08:24:41.084Z,5.47
2022-12-18T08:29:54.074Z,5.76
2022-12-18T08:32:20.562Z,5.74
2022-12-18T08:34:47.065Z,5.73
2022-12-18T08:37:13.532Z,5.89
2022-12-18T08:39:39.996Z,5.79
2022-12-18T08:42:10.021Z,5.54
2022-12-18T08:44:37.108Z,5.38
2022-12-18T08:47:03.863Z,5.13
2022-12-18T08:49:30.345Z,5.39
2022-12-18T08:51:57.820Z,5.66
2022-12-18T08:54:25.086Z,5.18
2022-12-18T08:56:52.167Z,5.05
2022-12-18T08:59:20.072Z,5.24
2022-12-18T09:01:48.380Z,5.35
2022-12-18T09:04:15.320Z,5.62
2022-12-18T09:06:41.916Z,5.71
2022-12-18T09:09:09.998Z,5.98
2022-12-18T09:11:36.485Z,6.10
2022-12-18T09:14:02.934Z,5.91
2022-12-18T09:16:32.227Z,6.12
2022-12-18T09:19:00.439Z,6.17
2022-12-18T09:21:29.646Z,6.15
2022-12-18T09:23:57.288Z,6.25
2022-12-18T09:26:25.796Z,6.35
2022-12-18T09:28:52.388Z,6.49
2022-12-18T09:31:22.076Z,6.65
2022-12-18T09:33:48.644Z,6.78
2022-12-18T09:36:17.533Z,6.78
2022-12-18T09:38:44.730Z,6.75
2022-12-18T09:41:32.444Z,6.89
2022-12-18T09:44:04.049Z,6.71
2022-12-18T09:46:38.226Z,6.69
2022-12-18T09:49:14.218Z,6.53
2022-12-18T09:51:48.076Z,6.71
2022-12-18T09:54:41.330Z,6.76
2022-12-18T09:57:14.873Z,6.91
2022-12-18T09:59:47.320Z,6.15
2022-12-18T10:02:21.656Z,6.43
2022-12-18T10:05:08.431Z,6.45
2022-12-18T10:07:49.877Z,6.69
2022-12-18T10:10:32.671Z,6.70
2022-12-18T10:13:38.042Z,6.91
2022-12-18T10:16:24.805Z,6.83
2022-12-18T10:19:13.061Z,6.46
2022-12-18T10:21:45.887Z,6.23
2022-12-18T10:24:53.919Z,6.48
2022-12-18T10:27:25.603Z,6.71
2022-12-18T10:29:52.457Z,6.67
2022-12-18T10:32:26.952Z,6.93
2022-12-18T10:35:00.501Z,7.03
2022-12-18T10:37:30.383Z,6.90
2022-12-18T10:40:10.860Z,6.85
2022-12-18T10:42:37.381Z,6.78
2022-12-18T10:45:14.634Z,7.06
2022-12-18T10:47:46.826Z,6.99
2022-12-18T10:50:47.211Z,7.06
2022-12-18T10:53:22.641Z,7.16
2022-12-18T10:55:49.865Z,7.12
2022-12-18T10:58:26.421Z,6.75
2022-12-18T11:01:15.862Z,6.51
2022-12-18T11:03:50.574Z,6.78
2022-12-18T11:06:19.917Z,6.98
2022-12-18T11:09:08.010Z,6.92
2022-12-18T11:11:39.865Z,7.05
2022-12-18T11:14:19.000Z,7.22
2022-12-18T11:17:23.831Z,7.04
2022-12-18T11:19:42.115Z,6.67
2022-12-18T11:22:26.188Z,6.56
2022-12-18T11:25:30.191Z,6.54
2022-12-18T11:27:58.177Z,6.69
2022-12-18T11:30:29.267Z,6.69
2022-12-18T11:33:10.351Z,6.82
2022-12-18T11:35:50.130Z,7.00
2022-12-18T11:38:30.459Z,6.88
2022-12-18T11:41:26.973Z,6.95
2022-12-18T11:44:06.465Z,6.89
2022-12-18T11:46:47.620Z,7.15
2022-12-18T11:49:23.289Z,6.98
2022-12-18T11:51:59.693Z,6.95
2022-12-18T11:54:26.310Z,6.96
2022-12-18T11:57:16.232Z,6.94
2022-12-18T11:59:57.934Z,7.07
2022-12-18T12:02:47.050Z,7.29
2022-12-18T12:05:42.612Z,7.29
2022-12-18T12:08:33.710Z,7.09
2022-12-18T12:11:21.202Z,7.23
2022-12-18T12:14:22.162Z,7.16
2022-12-18T12:16:59.880Z,7.00
2022-12-18T12:19:46.714Z,7.18
2022-12-18T12:22:30.155Z,7.24
2022-12-18T12:25:42.364Z,7.41
2022-12-18T12:28:46.087Z,7.17
2022-12-18T12:31:39.599Z,7.33
2022-12-18T12:34:19.187Z,7.29
2022-12-18T12:36:51.353Z,7.59
2022-12-18T12:39:24.939Z,7.81
2022-12-18T12:41:52.249Z,7.91
2022-12-18T12:44:34.528Z,7.78
2022-12-18T12:47:14.507Z,7.87
2022-12-18T12:49:47.007Z,8.21
2022-12-18T12:52:24.606Z,8.38
2022-12-18T12:54:52.872Z,8.46
2022-12-18T12:57:35.324Z,8.58
2022-12-18T13:00:10.834Z,8.83
2022-12-18T13:02:50.626Z,8.87
2022-12-18T13:05:39.691Z,9.09
2022-12-18T13:08:12.208Z,9.27
2022-12-18T13:10:44.672Z,9.42
2022-12-18T13:13:17.289Z,9.41
2022-12-18T13:16:08.978Z,9.70
2022-12-18T13:18:36.082Z,9.73
2022-12-18T13:21:18.208Z,9.90
2022-12-18T13:23:45.527Z,9.84
2022-12-18T13:26:20.864Z,10.05
2022-12-18T13:28:54.456Z,10.13
2022-12-18T13:31:39.711Z,10.32
2022-12-18T13:34:29.421Z,10.61
2022-12-18T13:37:18.307Z,10.78
2022-12-18T13:39:44.880Z,10.99
2022-12-18T13:42:11.609Z,11.15
2022-12-18T13:44:41.907Z,11.40
2022-12-18T13:47:35.677Z,11.52
2022-12-18T13:50:25.929Z,11.71
2022-12-18T13:52:54.836Z,11.94
2022-12-18T13:55:24.029Z,11.90
2022-12-18T13:57:50.597Z,11.87
2022-12-18T14:00:30.136Z,11.87
2022-12-18T14:02:58.759Z,11.91
2022-12-18T14:05:31.741Z,11.83
2022-12-18T14:08:17.102Z,11.90
2022-12-18T14:10:48.362Z,12.05
2022-12-18T14:13:27.863Z,12.12
2022-12-18T14:15:54.723Z,12.08
2022-12-18T14:18:42.965Z,12.21
2022-12-18T14:21:26.977Z,12.12
2022-12-18T14:24:19.777Z,12.24
2022-12-18T14:26:48.719Z,12.34
2022-12-18T14:29:24.034Z,12.22
2022-12-18T14:32:17.800Z,11.91
2022-12-18T14:34:52.504Z,11.70
2022-12-18T14:37:23.327Z,11.39
2022-12-18T14:39:55.101Z,11.08
2022-12-18T14:42:21.849Z,11.06
2022-12-18T14:45:12.934Z,11.02
2022-12-18T14:47:35.274Z,10.82
2022-12-18T14:50:01.941Z,10.63
2022-12-18T14:52:32.624Z,10.55
2022-12-18T14:54:59.295Z,10.25
2022-12-18T14:57:36.879Z,10.27
2022-12-18T15:00:16.026Z,10.30
2022-12-18T15:02:45.881Z,9.92
2022-12-18T15:05:28.988Z,9.48
2022-12-18T15:07:58.268Z,9.43
2022-12-18T15:10:31.145Z,9.54
2022-12-18T15:12:57.549Z,9.84
2022-12-18T15:15:36.168Z,10.09
2022-12-18T15:18:12.549Z,9.26
2022-12-18T15:20:43.952Z,9.65
2022-12-18T15:23:24.852Z,9.48
2022-12-18T15:26:06.094Z,9.18
2022-12-18T15:28:54.605Z,9.19
2022-12-18T15:31:27.694Z,8.78
2022-12-18T15:33:54.136Z,8.65
2022-12-18T15:36:26.858Z,8.60
2022-12-18T15:38:59.508Z,8.48
2022-12-18T15:41:34.436Z,8.39
2022-12-18T15:44:17.792Z,8.30
2022-12-18T15:46:44.314Z,8.10
2022-12-18T15:49:10.891Z,7.97
2022-12-18T15:51:39.854Z,8.00
2022-12-18T15:54:14.125Z,7.78
2022-12-18T15:56:40.634Z,7.70
2022-12-18T15:59:16.113Z,7.67
2022-12-18T16:01:46.680Z,7.41
2022-12-18T16:04:14.992Z,7.62
2022-12-18T16:07:12.680Z,7.72
2022-12-18T16:09:27.926Z,7.73
2022-12-18T16:11:54.450Z,7.78
2022-12-18T16:14:30.170Z,7.71
2022-12-18T16:17:00.238Z,7.72
2022-12-18T16:19:28.242Z,7.65
2022-12-18T16:21:57.652Z,7.79
2022-12-18T16:24:30.520Z,7.79
2022-12-18T16:26:59.515Z,7.81
2022-12-18T16:29:27.611Z,7.86
2022-12-18T16:31:59.307Z,7.86
2022-12-18T16:34:34.869Z,7.89
2022-12-18T16:37:06.198Z,7.90
2022-12-18T16:39:34.543Z,7.93
2022-12-18T16:42:09.462Z,7.88
2022-12-18T16:44:36.369Z,7.88
2022-12-18T16:47:04.090Z,7.78
2022-12-18T16:49:30.955Z,7.73
2022-12-18T16:51:57.915Z,7.44
2022-12-18T16:54:24.864Z,7.32
2022-12-18T16:56:52.216Z,6.98
2022-12-18T16:59:19.103Z,6.92
2022-12-18T17:01:46.794Z,6.95
2022-12-18T17:04:13.557Z,6.97
2022-12-18T17:06:44.481Z,6.90
2022-12-18T17:09:14.937Z,7.05
2022-12-18T17:11:42.460Z,7.08
2022-12-18T17:14:11.390Z,7.06
2022-12-18T17:16:37.961Z,7.17
2022-12-18T17:19:09.673Z,7.24
2022-12-18T17:21:40.772Z,7.36
2022-12-18T17:24:07.942Z,7.36
2022-12-18T17:26:34.457Z,7.44
2022-12-18T17:29:00.922Z,7.41
2022-12-18T17:31:29.804Z,7.38
2022-12-18T17:33:57.187Z,7.31
2022-12-18T17:36:24.787Z,7.44
2022-12-18T17:39:03.391Z,7.62
2022-12-18T17:41:30.705Z,7.66
2022-12-18T17:44:03.500Z,7.67
2022-12-18T17:46:32.594Z,7.67
2022-12-18T17:49:02.148Z,7.54
2022-12-18T17:51:30.590Z,7.47
2022-12-18T17:53:57.373Z,7.64
2022-12-18T17:56:24.652Z,7.62
2022-12-18T17:58:52.397Z,7.66
2022-12-18T18:01:22.493Z,7.68
2022-12-18T18:03:51.558Z,7.66
2022-12-18T18:06:20.340Z,7.66
2022-12-18T18:08:46.821Z,7.59
2022-12-18T18:11:16.645Z,7.61
2022-12-18T18:13:46.820Z,7.58
2022-12-18T18:16:13.838Z,7.54
2022-12-18T18:18:40.488Z,7.63
2022-12-18T18:21:08.789Z,7.67
2022-12-18T18:23:35.832Z,7.69
2022-12-18T18:26:05.086Z,7.62
2022-12-18T18:28:31.969Z,7.67
2022-12-18T18:31:03.606Z,7.63
2022-12-18T18:33:30.412Z,7.57
2022-12-18T18:35:56.891Z,7.50
2022-12-18T18:38:23.369Z,7.38
2022-12-18T18:41:01.818Z,7.30
2022-12-18T18:43:29.159Z,7.41
2022-12-18T18:45:56.855Z,7.37
2022-12-18T18:48:23.544Z,7.37
2022-12-18T18:50:59.273Z,7.53
2022-12-18T18:53:25.931Z,7.35
2022-12-18T18:56:26.161Z,7.40
2022-12-18T18:58:40.027Z,7.23
2022-12-18T19:01:16.811Z,7.34
2022-12-18T19:03:44.794Z,7.41
2022-12-18T19:06:15.819Z,7.48
2022-12-18T19:08:43.035Z,7.53
2022-12-18T19:11:11.367Z,7.23
2022-12-18T19:13:38.033Z,7.18
2022-12-18T19:16:09.080Z,7.27
2022-12-18T19:18:35.772Z,7.36
2022-12-18T19:21:05.098Z,7.25
2022-12-18T19:23:32.845Z,7.35
2022-12-18T19:26:17.011Z,7.43
2022-12-18T19:28:48.449Z,7.51
2022-12-18T19:31:22.860Z,7.58
2022-12-18T19:33:51.368Z,7.68
2022-12-18T19:36:23.398Z,7.72
2022-12-18T19:38:51.440Z,7.66
2022-12-18T19:41:18.827Z,7.76
2022-12-18T19:43:47.008Z,7.79
2022-12-18T19:46:16.045Z,7.75
2022-12-18T19:48:44.622Z,7.65
2022-12-18T19:51:24.256Z,7.79
2022-12-18T19:53:57.806Z,7.78
2022-12-18T19:56:28.673Z,7.90
2022-12-18T19:58:55.409Z,7.91
2022-12-18T20:01:24.719Z,7.90
2022-12-18T20:03:53.738Z,7.89
2022-12-18T20:06:31.387Z,7.88
2022-12-18T20:09:01.193Z,7.95
2022-12-18T20:11:33.336Z,7.97
2022-12-18T20:14:03.543Z,7.93
2022-12-18T20:16:30.288Z,8.02
2022-12-18T20:18:58.301Z,8.04
2022-12-18T20:21:25.434Z,8.07
2022-12-18T20:23:52.481Z,8.07
2022-12-18T20:26:19.277Z,8.12
2022-12-18T20:28:45.800Z,8.13
2022-12-18T20:31:13.546Z,7.98
2022-12-18T20:33:41.313Z,8.04
2022-12-18T20:36:13.092Z,8.05
2022-12-18T20:38:41.193Z,8.16
2022-12-18T20:41:10.447Z,8.15
2022-12-18T20:43:37.564Z,7.99
2022-12-18T20:46:08.232Z,8.09
2022-12-18T20:48:35.206Z,8.08
2022-12-18T20:51:05.366Z,7.96
2022-12-18T20:53:32.730Z,7.99
2022-12-18T20:55:59.487Z,8.04
2022-12-18T20:58:25.958Z,8.04
2022-12-18T21:01:13.290Z,8.01
2022-12-18T21:03:43.435Z,8.05
2022-12-18T21:06:10.393Z,7.98
2022-12-18T21:08:37.417Z,7.98
2022-12-18T21:11:15.975Z,7.89
2022-12-18T21:13:43.788Z,7.94
2022-12-18T21:16:10.321Z,8.04
2022-12-18T21:18:37.520Z,8.07
2022-12-18T21:21:04.008Z,8.15
2022-12-18T21:23:33.305Z,8.16
2022-12-18T21:26:25.198Z,8.10
2022-12-18T21:28:56.494Z,8.10
2022-12-18T21:31:25.301Z,8.07
2022-12-18T21:33:54.177Z,8.14
2022-12-18T21:36:29.741Z,8.15
2022-12-18T21:38:57.644Z,8.13
2022-12-18T21:41:27.077Z,8.17
2022-12-18T21:43:53.531Z,8.22
2022-12-18T21:46:20.089Z,8.21
2022-12-18T21:48:46.617Z,8.19
2022-12-18T21:51:13.088Z,8.29
2022-12-18T21:53:39.538Z,8.31
2022-12-18T21:56:06.103Z,8.28
2022-12-18T21:58:32.589Z,8.23
2022-12-18T22:00:59.183Z,8.34
2022-12-18T22:03:25.835Z,8.36
2022-12-18T22:06:03.496Z,8.37
2022-12-18T22:08:36.109Z,8.38
2022-12-18T22:11:08.118Z,8.32
2022-12-18T22:13:34.751Z,8.32
2022-12-18T22:16:01.409Z,8.34
2022-12-18T22:18:27.896Z,8.35
2022-12-18T22:21:01.898Z,8.44
2022-12-18T22:23:28.448Z,8.42
2022-12-18T22:25:55.058Z,8.45
2022-12-18T22:28:21.534Z,8.50
2022-12-18T22:30:48.048Z,8.54
2022-12-18T22:33:15.344Z,8.52
2022-12-18T22:35:42.054Z,8.51
2022-12-18T22:38:09.038Z,8.47
2022-12-18T22:40:35.536Z,8.54
2022-12-18T22:43:02.001Z,8.54
2022-12-18T22:45:28.524Z,8.54
2022-12-18T22:47:54.993Z,8.58
2022-12-18T22:50:21.477Z,8.58
2022-12-18T22:52:47.957Z,8.61
2022-12-18T22:55:14.418Z,8.63
2022-12-18T22:57:41.427Z,8.61
2022-12-18T23:00:15.253Z,8.64
2022-12-18T23:02:43.475Z,8.58
2022-12-18T23:05:10.144Z,8.64
2022-12-18T23:07:36.596Z,8.59
2022-12-18T23:10:03.263Z,8.61
2022-12-18T23:12:29.929Z,8.60
2022-12-18T23:14:56.563Z,8.59
2022-12-18T23:17:23.060Z,8.65
2022-12-18T23:19:49.629Z,8.65
2022-12-18T23:22:17.101Z,8.73
2022-12-18T23:24:43.701Z,8.69
2022-12-18T23:27:11.816Z,8.75
2022-12-18T23:29:39.518Z,8.73
2022-12-18T23:32:06.023Z,8.76
2022-12-18T23:34:32.505Z,8.80
2022-12-18T23:36:58.974Z,8.77
2022-12-18T23:39:29.369Z,8.77
2022-12-18T23:42:00.498Z,8.75
2022-12-18T23:44:27.833Z,8.75
2022-12-18T23:46:55.214Z,8.32
2022-12-18T23:49:22.285Z,8.47
2022-12-18T23:51:48.759Z,8.54
2022-12-18T23:54:15.359Z,8.63
2022-12-18T23:56:42.188Z,8.65
2022-12-18T23:59:08.745Z,8.66
